sensor_id;sensor_type;location;lat;lon;timestamp;temperature;humidity
58413;DHT22;44209;52.952;6.790;2024-03-17T00:01:46;4.00;99.90
58413;DHT22;44209;52.952;6.790;2024-03-17T00:04:12;4.00;99.90
58413;DHT22;44209;52.952;6.790;2024-03-17T00:06:37;3.90;99.90
58413;DHT22;44209;52.952;6.790;2024-03-17T00:09:03;3.80;99.90
58413;DHT22;44209;52.952;6.790;2024-03-17T00:11:35;3.80;99.90
58413;DHT22;44209;52.952;6.790;2024-03-17T00:14:01;3.80;99.90
58413;DHT22;44209;52.952;6.790;2024-03-17T00:16:27;3.70;99.90
58413;DHT22;44209;52.952;6.790;2024-03-17T00:18:53;3.70;99.90
58413;DHT22;44209;52.952;6.790;2024-03-17T00:21:19;3.60;99.90
58413;DHT22;44209;52.952;6.790;2024-03-17T00:23:47;3.60;99.90
58413;DHT22;44209;52.952;6.790;2024-03-17T00:26:15;3.60;99.90
58413;DHT22;44209;52.952;6.790;2024-03-17T00:28:41;3.60;99.90
58413;DHT22;44209;52.952;6.790;2024-03-17T00:31:07;3.60;99.90
58413;DHT22;44209;52.952;6.790;2024-03-17T00:33:35;3.60;99.90
58413;DHT22;44209;52.952;6.790;2024-03-17T00:36:01;3.60;99.90
58413;DHT22;44209;52.952;6.790;2024-03-17T00:38:27;3.60;99.90
58413;DHT22;44209;52.952;6.790;2024-03-17T00:40:53;3.60;99.90
58413;DHT22;44209;52.952;6.790;2024-03-17T00:43:18;3.60;99.90
58413;DHT22;44209;52.952;6.790;2024-03-17T00:45:51;3.50;99.90
58413;DHT22;44209;52.952;6.790;2024-03-17T00:48:17;3.50;99.90
58413;DHT22;44209;52.952;6.790;2024-03-17T00:50:42;3.40;99.90
58413;DHT22;44209;52.952;6.790;2024-03-17T00:53:10;3.30;99.90
58413;DHT22;44209;52.952;6.790;2024-03-17T00:55:37;3.30;99.90
58413;DHT22;44209;52.952;6.790;2024-03-17T00:58:02;3.40;99.90
58413;DHT22;44209;52.952;6.790;2024-03-17T01:00:29;3.40;99.90
58413;DHT22;44209;52.952;6.790;2024-03-17T01:02:54;3.30;99.90
58413;DHT22;44209;52.952;6.790;2024-03-17T01:05:20;3.20;99.90
58413;DHT22;44209;52.952;6.790;2024-03-17T01:07:46;3.20;99.90
58413;DHT22;44209;52.952;6.790;2024-03-17T01:10:13;3.20;99.90
58413;DHT22;44209;52.952;6.790;2024-03-17T01:12:39;3.20;99.90
58413;DHT22;44209;52.952;6.790;2024-03-17T01:15:08;3.10;99.90
58413;DHT22;44209;52.952;6.790;2024-03-17T01:17:34;3.00;99.90
58413;DHT22;44209;52.952;6.790;2024-03-17T01:19:59;3.00;99.90
58413;DHT22;44209;52.952;6.790;2024-03-17T01:22:25;3.10;99.90
58413;DHT22;44209;52.952;6.790;2024-03-17T01:24:51;3.10;99.90
58413;DHT22;44209;52.952;6.790;2024-03-17T01:27:17;3.10;99.90
58413;DHT22;44209;52.952;6.790;2024-03-17T01:29:43;3.10;99.90
58413;DHT22;44209;52.952;6.790;2024-03-17T01:32:09;3.00;99.90
58413;DHT22;44209;52.952;6.790;2024-03-17T01:34:37;2.90;99.90
58413;DHT22;44209;52.952;6.790;2024-03-17T01:37:02;2.80;99.90
58413;DHT22;44209;52.952;6.790;2024-03-17T01:39:29;2.80;99.90
58413;DHT22;44209;52.952;6.790;2024-03-17T01:41:55;2.80;99.90
58413;DHT22;44209;52.952;6.790;2024-03-17T01:44:26;2.70;99.90
58413;DHT22;44209;52.952;6.790;2024-03-17T01:46:55;2.70;99.90
58413;DHT22;44209;52.952;6.790;2024-03-17T01:49:22;2.70;99.90
58413;DHT22;44209;52.952;6.790;2024-03-17T01:51:48;2.70;99.90
58413;DHT22;44209;52.952;6.790;2024-03-17T01:54:15;2.60;99.90
58413;DHT22;44209;52.952;6.790;2024-03-17T01:56:42;2.60;99.90
58413;DHT22;44209;52.952;6.790;2024-03-17T01:59:10;2.70;99.90
58413;DHT22;44209;52.952;6.790;2024-03-17T02:01:38;2.60;99.90
58413;DHT22;44209;52.952;6.790;2024-03-17T02:04:05;2.60;99.90
58413;DHT22;44209;52.952;6.790;2024-03-17T02:06:31;2.60;99.90
58413;DHT22;44209;52.952;6.790;2024-03-17T02:08:57;2.60;99.90
58413;DHT22;44209;52.952;6.790;2024-03-17T02:11:28;2.60;99.90
58413;DHT22;44209;52.952;6.790;2024-03-17T02:13:55;2.60;99.90
58413;DHT22;44209;52.952;6.790;2024-03-17T02:16:21;2.60;99.90
58413;DHT22;44209;52.952;6.790;2024-03-17T02:18:47;2.50;99.90
58413;DHT22;44209;52.952;6.790;2024-03-17T02:21:13;2.50;99.90
58413;DHT22;44209;52.952;6.790;2024-03-17T02:23:43;2.50;99.90
58413;DHT22;44209;52.952;6.790;2024-03-17T02:26:08;2.50;99.90
58413;DHT22;44209;52.952;6.790;2024-03-17T02:28:45;2.60;99.90
58413;DHT22;44209;52.952;6.790;2024-03-17T02:31:13;2.60;99.90
58413;DHT22;44209;52.952;6.790;2024-03-17T02:33:39;2.60;99.90
58413;DHT22;44209;52.952;6.790;2024-03-17T02:36:08;2.60;99.90
58413;DHT22;44209;52.952;6.790;2024-03-17T02:38:35;2.60;99.90
58413;DHT22;44209;52.952;6.790;2024-03-17T02:41:20;2.50;99.90
58413;DHT22;44209;52.952;6.790;2024-03-17T02:43:46;2.50;99.90
58413;DHT22;44209;52.952;6.790;2024-03-17T02:46:13;2.50;99.90
58413;DHT22;44209;52.952;6.790;2024-03-17T02:48:40;2.40;99.90
58413;DHT22;44209;52.952;6.790;2024-03-17T02:51:16;2.40;99.90
58413;DHT22;44209;52.952;6.790;2024-03-17T02:53:42;2.40;99.90
58413;DHT22;44209;52.952;6.790;2024-03-17T02:56:09;2.40;99.90
58413;DHT22;44209;52.952;6.790;2024-03-17T02:58:35;2.50;99.90
58413;DHT22;44209;52.952;6.790;2024-03-17T03:01:05;2.50;99.90
58413;DHT22;44209;52.952;6.790;2024-03-17T03:03:32;2.50;99.90
58413;DHT22;44209;52.952;6.790;2024-03-17T03:05:58;2.50;99.90
58413;DHT22;44209;52.952;6.790;2024-03-17T03:08:24;2.40;99.90
58413;DHT22;44209;52.952;6.790;2024-03-17T03:10:50;2.40;99.90
58413;DHT22;44209;52.952;6.790;2024-03-17T03:13:16;2.40;99.90
58413;DHT22;44209;52.952;6.790;2024-03-17T03:15:42;2.40;99.90
58413;DHT22;44209;52.952;6.790;2024-03-17T03:18:09;2.40;99.90
58413;DHT22;44209;52.952;6.790;2024-03-17T03:20:34;2.40;99.90
58413;DHT22;44209;52.952;6.790;2024-03-17T03:23:01;2.40;99.90
58413;DHT22;44209;52.952;6.790;2024-03-17T03:25:28;2.50;99.90
58413;DHT22;44209;52.952;6.790;2024-03-17T03:27:53;2.50;99.90
58413;DHT22;44209;52.952;6.790;2024-03-17T03:30:22;2.60;99.90
58413;DHT22;44209;52.952;6.790;2024-03-17T03:32:48;2.50;99.90
58413;DHT22;44209;52.952;6.790;2024-03-17T03:35:14;2.60;99.90
58413;DHT22;44209;52.952;6.790;2024-03-17T03:37:40;2.60;99.90
58413;DHT22;44209;52.952;6.790;2024-03-17T03:40:07;2.60;99.90
58413;DHT22;44209;52.952;6.790;2024-03-17T03:42:46;2.60;99.90
58413;DHT22;44209;52.952;6.790;2024-03-17T03:45:12;2.50;99.90
58413;DHT22;44209;52.952;6.790;2024-03-17T03:47:41;2.50;99.90
58413;DHT22;44209;52.952;6.790;2024-03-17T03:50:10;2.50;99.90
58413;DHT22;44209;52.952;6.790;2024-03-17T03:52:39;2.60;99.90
58413;DHT22;44209;52.952;6.790;2024-03-17T03:55:09;2.60;99.90
58413;DHT22;44209;52.952;6.790;2024-03-17T03:57:44;2.60;99.90
58413;DHT22;44209;52.952;6.790;2024-03-17T04:00:21;2.60;99.90
58413;DHT22;44209;52.952;6.790;2024-03-17T04:02:51;2.60;99.90
58413;DHT22;44209;52.952;6.790;2024-03-17T04:05:18;2.60;99.90
58413;DHT22;44209;52.952;6.790;2024-03-17T04:07:45;2.70;99.90
58413;DHT22;44209;52.952;6.790;2024-03-17T04:10:12;2.70;99.90
58413;DHT22;44209;52.952;6.790;2024-03-17T04:12:38;2.80;99.90
58413;DHT22;44209;52.952;6.790;2024-03-17T04:15:04;2.80;99.90
58413;DHT22;44209;52.952;6.790;2024-03-17T04:17:32;2.80;99.90
58413;DHT22;44209;52.952;6.790;2024-03-17T04:19:58;2.90;99.90
58413;DHT22;44209;52.952;6.790;2024-03-17T04:22:24;2.90;99.90
58413;DHT22;44209;52.952;6.790;2024-03-17T04:24:51;3.00;99.90
58413;DHT22;44209;52.952;6.790;2024-03-17T04:27:23;3.00;99.90
58413;DHT22;44209;52.952;6.790;2024-03-17T04:29:56;3.10;99.90
58413;DHT22;44209;52.952;6.790;2024-03-17T04:32:23;3.20;99.90
58413;DHT22;44209;52.952;6.790;2024-03-17T04:34:49;3.20;99.90
58413;DHT22;44209;52.952;6.790;2024-03-17T04:37:15;3.30;99.90
58413;DHT22;44209;52.952;6.790;2024-03-17T04:39:42;3.30;99.90
58413;DHT22;44209;52.952;6.790;2024-03-17T04:42:13;3.40;99.90
58413;DHT22;44209;52.952;6.790;2024-03-17T04:44:43;3.40;99.90
58413;DHT22;44209;52.952;6.790;2024-03-17T04:47:08;3.50;99.90
58413;DHT22;44209;52.952;6.790;2024-03-17T04:49:39;3.50;99.90
58413;DHT22;44209;52.952;6.790;2024-03-17T04:52:06;3.50;99.90
58413;DHT22;44209;52.952;6.790;2024-03-17T04:54:32;3.60;99.90
58413;DHT22;44209;52.952;6.790;2024-03-17T04:56:58;3.60;99.90
58413;DHT22;44209;52.952;6.790;2024-03-17T04:59:24;3.70;99.90
58413;DHT22;44209;52.952;6.790;2024-03-17T05:01:50;3.70;99.90
58413;DHT22;44209;52.952;6.790;2024-03-17T05:04:17;3.70;99.90
58413;DHT22;44209;52.952;6.790;2024-03-17T05:06:43;3.70;99.90
58413;DHT22;44209;52.952;6.790;2024-03-17T05:09:17;3.70;99.90
58413;DHT22;44209;52.952;6.790;2024-03-17T05:11:43;3.70;99.90
58413;DHT22;44209;52.952;6.790;2024-03-17T05:14:09;3.70;99.90
58413;DHT22;44209;52.952;6.790;2024-03-17T05:16:35;3.70;99.90
58413;DHT22;44209;52.952;6.790;2024-03-17T05:19:00;3.70;99.90
58413;DHT22;44209;52.952;6.790;2024-03-17T05:21:26;3.70;99.90
58413;DHT22;44209;52.952;6.790;2024-03-17T05:24:00;3.70;99.90
58413;DHT22;44209;52.952;6.790;2024-03-17T05:26:26;3.70;99.90
58413;DHT22;44209;52.952;6.790;2024-03-17T05:28:53;3.70;99.90
58413;DHT22;44209;52.952;6.790;2024-03-17T05:31:19;3.70;99.90
58413;DHT22;44209;52.952;6.790;2024-03-17T05:33:47;3.70;99.90
58413;DHT22;44209;52.952;6.790;2024-03-17T05:36:13;3.70;99.90
58413;DHT22;44209;52.952;6.790;2024-03-17T05:38:39;3.70;99.90
58413;DHT22;44209;52.952;6.790;2024-03-17T05:41:09;3.70;99.90
58413;DHT22;44209;52.952;6.790;2024-03-17T05:43:36;3.70;99.90
58413;DHT22;44209;52.952;6.790;2024-03-17T05:46:03;3.70;99.90
58413;DHT22;44209;52.952;6.790;2024-03-17T05:48:37;3.80;99.90
58413;DHT22;44209;52.952;6.790;2024-03-17T05:51:05;3.80;99.90
58413;DHT22;44209;52.952;6.790;2024-03-17T05:53:31;3.80;99.90
58413;DHT22;44209;52.952;6.790;2024-03-17T05:55:59;3.80;99.90
58413;DHT22;44209;52.952;6.790;2024-03-17T05:58:25;3.80;99.90
58413;DHT22;44209;52.952;6.790;2024-03-17T06:00:51;3.90;99.90
58413;DHT22;44209;52.952;6.790;2024-03-17T06:03:16;3.90;99.90
58413;DHT22;44209;52.952;6.790;2024-03-17T06:05:43;3.90;99.90
58413;DHT22;44209;52.952;6.790;2024-03-17T06:08:11;3.90;99.90
58413;DHT22;44209;52.952;6.790;2024-03-17T06:10:37;4.00;99.90
58413;DHT22;44209;52.952;6.790;2024-03-17T06:13:04;3.90;99.90
58413;DHT22;44209;52.952;6.790;2024-03-17T06:15:30;4.00;99.90
58413;DHT22;44209;52.952;6.790;2024-03-17T06:17:56;3.90;99.90
58413;DHT22;44209;52.952;6.790;2024-03-17T06:20:23;4.00;99.90
58413;DHT22;44209;52.952;6.790;2024-03-17T06:22:53;4.00;99.90
58413;DHT22;44209;52.952;6.790;2024-03-17T06:25:18;4.00;99.90
58413;DHT22;44209;52.952;6.790;2024-03-17T06:27:44;3.90;99.90
58413;DHT22;44209;52.952;6.790;2024-03-17T06:30:13;4.00;99.90
58413;DHT22;44209;52.952;6.790;2024-03-17T06:32:43;4.00;99.90
58413;DHT22;44209;52.952;6.790;2024-03-17T06:35:14;4.10;99.90
58413;DHT22;44209;52.952;6.790;2024-03-17T06:37:44;4.10;99.90
58413;DHT22;44209;52.952;6.790;2024-03-17T06:40:14;4.10;99.90
58413;DHT22;44209;52.952;6.790;2024-03-17T06:42:40;4.20;99.90
58413;DHT22;44209;52.952;6.790;2024-03-17T06:45:07;4.30;99.90
58413;DHT22;44209;52.952;6.790;2024-03-17T06:47:39;4.30;99.90
58413;DHT22;44209;52.952;6.790;2024-03-17T06:50:06;4.40;99.90
58413;DHT22;44209;52.952;6.790;2024-03-17T06:52:35;4.60;99.90
58413;DHT22;44209;52.952;6.790;2024-03-17T06:55:01;4.70;99.90
58413;DHT22;44209;52.952;6.790;2024-03-17T06:57:27;4.80;99.90
58413;DHT22;44209;52.952;6.790;2024-03-17T06:59:53;5.00;99.90
58413;DHT22;44209;52.952;6.790;2024-03-17T07:02:18;5.00;99.90
58413;DHT22;44209;52.952;6.790;2024-03-17T07:04:46;5.20;99.90
58413;DHT22;44209;52.952;6.790;2024-03-17T07:07:12;5.20;99.90
58413;DHT22;44209;52.952;6.790;2024-03-17T07:09:42;5.30;99.90
58413;DHT22;44209;52.952;6.790;2024-03-17T07:12:08;5.40;99.90
58413;DHT22;44209;52.952;6.790;2024-03-17T07:14:35;5.50;99.90
58413;DHT22;44209;52.952;6.790;2024-03-17T07:17:01;5.50;99.90
58413;DHT22;44209;52.952;6.790;2024-03-17T07:19:27;5.60;99.90
58413;DHT22;44209;52.952;6.790;2024-03-17T07:21:54;5.60;99.90
58413;DHT22;44209;52.952;6.790;2024-03-17T07:24:20;5.70;99.90
58413;DHT22;44209;52.952;6.790;2024-03-17T07:26:48;5.70;99.90
58413;DHT22;44209;52.952;6.790;2024-03-17T07:29:15;5.80;99.90
58413;DHT22;44209;52.952;6.790;2024-03-17T07:31:40;5.90;99.90
58413;DHT22;44209;52.952;6.790;2024-03-17T07:34:06;5.90;99.90
58413;DHT22;44209;52.952;6.790;2024-03-17T07:36:32;6.10;99.90
58413;DHT22;44209;52.952;6.790;2024-03-17T07:38:57;6.10;99.90
58413;DHT22;44209;52.952;6.790;2024-03-17T07:41:23;6.20;99.90
58413;DHT22;44209;52.952;6.790;2024-03-17T07:43:52;6.40;99.90
58413;DHT22;44209;52.952;6.790;2024-03-17T07:46:18;6.40;99.90
58413;DHT22;44209;52.952;6.790;2024-03-17T07:48:44;6.60;99.90
58413;DHT22;44209;52.952;6.790;2024-03-17T07:51:15;6.70;99.90
58413;DHT22;44209;52.952;6.790;2024-03-17T07:53:44;6.70;99.90
58413;DHT22;44209;52.952;6.790;2024-03-17T07:56:17;6.90;99.90
58413;DHT22;44209;52.952;6.790;2024-03-17T07:58:45;7.00;99.90
58413;DHT22;44209;52.952;6.790;2024-03-17T08:01:12;7.10;99.90
58413;DHT22;44209;52.952;6.790;2024-03-17T08:03:39;7.20;99.90
58413;DHT22;44209;52.952;6.790;2024-03-17T08:06:07;7.30;99.90
58413;DHT22;44209;52.952;6.790;2024-03-17T08:08:33;7.40;99.90
58413;DHT22;44209;52.952;6.790;2024-03-17T08:11:00;7.40;99.90
58413;DHT22;44209;52.952;6.790;2024-03-17T08:13:29;7.40;99.90
58413;DHT22;44209;52.952;6.790;2024-03-17T08:16:04;7.50;99.90
58413;DHT22;44209;52.952;6.790;2024-03-17T08:18:34;7.40;99.90
58413;DHT22;44209;52.952;6.790;2024-03-17T08:21:00;7.40;99.90
58413;DHT22;44209;52.952;6.790;2024-03-17T08:23:27;7.40;99.90
58413;DHT22;44209;52.952;6.790;2024-03-17T08:25:54;7.50;99.90
58413;DHT22;44209;52.952;6.790;2024-03-17T08:28:21;7.50;99.90
58413;DHT22;44209;52.952;6.790;2024-03-17T08:31:00;7.50;99.90
58413;DHT22;44209;52.952;6.790;2024-03-17T08:33:26;7.50;99.90
58413;DHT22;44209;52.952;6.790;2024-03-17T08:38:22;7.60;99.90
58413;DHT22;44209;52.952;6.790;2024-03-17T08:40:55;7.60;99.90
58413;DHT22;44209;52.952;6.790;2024-03-17T08:43:22;7.60;99.90
58413;DHT22;44209;52.952;6.790;2024-03-17T08:46:03;7.60;99.90
58413;DHT22;44209;52.952;6.790;2024-03-17T08:48:32;7.70;99.90
58413;DHT22;44209;52.952;6.790;2024-03-17T08:50:59;7.80;99.90
58413;DHT22;44209;52.952;6.790;2024-03-17T08:53:26;7.80;99.90
58413;DHT22;44209;52.952;6.790;2024-03-17T08:55:52;7.90;99.90
58413;DHT22;44209;52.952;6.790;2024-03-17T08:58:18;8.00;99.90
58413;DHT22;44209;52.952;6.790;2024-03-17T09:00:43;8.00;99.90
58413;DHT22;44209;52.952;6.790;2024-03-17T09:03:10;8.10;99.90
58413;DHT22;44209;52.952;6.790;2024-03-17T09:05:37;8.10;99.90
58413;DHT22;44209;52.952;6.790;2024-03-17T09:08:03;8.10;99.90
58413;DHT22;44209;52.952;6.790;2024-03-17T09:10:29;8.30;99.90
58413;DHT22;44209;52.952;6.790;2024-03-17T09:12:54;8.30;99.90
58413;DHT22;44209;52.952;6.790;2024-03-17T09:15:20;8.30;99.90
58413;DHT22;44209;52.952;6.790;2024-03-17T09:17:46;8.40;99.90
58413;DHT22;44209;52.952;6.790;2024-03-17T09:20:13;8.50;99.90
58413;DHT22;44209;52.952;6.790;2024-03-17T09:22:43;8.50;99.90
58413;DHT22;44209;52.952;6.790;2024-03-17T09:25:09;8.60;99.90
58413;DHT22;44209;52.952;6.790;2024-03-17T09:27:35;8.70;99.90
58413;DHT22;44209;52.952;6.790;2024-03-17T09:30:04;8.80;99.90
58413;DHT22;44209;52.952;6.790;2024-03-17T09:32:37;8.90;99.90
58413;DHT22;44209;52.952;6.790;2024-03-17T09:35:03;8.90;99.90
58413;DHT22;44209;52.952;6.790;2024-03-17T09:37:30;9.00;99.90
58413;DHT22;44209;52.952;6.790;2024-03-17T09:39:59;9.20;99.90
58413;DHT22;44209;52.952;6.790;2024-03-17T09:42:26;9.20;99.90
58413;DHT22;44209;52.952;6.790;2024-03-17T09:44:55;9.30;99.90
58413;DHT22;44209;52.952;6.790;2024-03-17T09:47:23;9.30;99.90
58413;DHT22;44209;52.952;6.790;2024-03-17T09:49:50;9.40;99.90
58413;DHT22;44209;52.952;6.790;2024-03-17T09:52:25;9.60;99.90
58413;DHT22;44209;52.952;6.790;2024-03-17T09:54:59;9.90;99.90
58413;DHT22;44209;52.952;6.790;2024-03-17T09:57:25;10.00;99.90
58413;DHT22;44209;52.952;6.790;2024-03-17T09:59:54;10.30;99.90
58413;DHT22;44209;52.952;6.790;2024-03-17T10:02:20;10.40;99.90
58413;DHT22;44209;52.952;6.790;2024-03-17T10:04:47;10.50;99.90
58413;DHT22;44209;52.952;6.790;2024-03-17T10:07:13;10.50;99.90
58413;DHT22;44209;52.952;6.790;2024-03-17T10:09:41;10.50;99.90
58413;DHT22;44209;52.952;6.790;2024-03-17T10:12:28;10.60;99.90
58413;DHT22;44209;52.952;6.790;2024-03-17T10:14:58;10.70;99.90
58413;DHT22;44209;52.952;6.790;2024-03-17T10:17:34;10.80;99.90
58413;DHT22;44209;52.952;6.790;2024-03-17T10:22:57;10.90;99.90
58413;DHT22;44209;52.952;6.790;2024-03-17T10:25:31;11.10;99.90
58413;DHT22;44209;52.952;6.790;2024-03-17T10:27:57;11.10;99.90
58413;DHT22;44209;52.952;6.790;2024-03-17T10:30:24;11.30;99.90
58413;DHT22;44209;52.952;6.790;2024-03-17T10:32:59;11.30;99.90
58413;DHT22;44209;52.952;6.790;2024-03-17T10:35:36;11.40;99.90
58413;DHT22;44209;52.952;6.790;2024-03-17T10:38:07;11.40;99.90
58413;DHT22;44209;52.952;6.790;2024-03-17T10:40:34;11.50;99.90
58413;DHT22;44209;52.952;6.790;2024-03-17T10:43:02;11.40;99.90
58413;DHT22;44209;52.952;6.790;2024-03-17T10:45:28;11.50;99.90
58413;DHT22;44209;52.952;6.790;2024-03-17T10:48:02;11.50;99.90
58413;DHT22;44209;52.952;6.790;2024-03-17T10:50:36;11.50;99.90
58413;DHT22;44209;52.952;6.790;2024-03-17T10:53:03;11.40;99.90
58413;DHT22;44209;52.952;6.790;2024-03-17T10:55:39;11.40;99.90
58413;DHT22;44209;52.952;6.790;2024-03-17T10:58:11;11.20;99.90
58413;DHT22;44209;52.952;6.790;2024-03-17T11:00:38;11.20;99.90
58413;DHT22;44209;52.952;6.790;2024-03-17T11:03:08;11.20;99.90
58413;DHT22;44209;52.952;6.790;2024-03-17T11:05:37;11.20;99.90
58413;DHT22;44209;52.952;6.790;2024-03-17T11:08:03;11.10;99.90
58413;DHT22;44209;52.952;6.790;2024-03-17T11:10:36;11.10;99.90
58413;DHT22;44209;52.952;6.790;2024-03-17T11:13:03;11.10;99.90
58413;DHT22;44209;52.952;6.790;2024-03-17T11:20:37;11.20;99.90
58413;DHT22;44209;52.952;6.790;2024-03-17T11:23:03;11.20;99.90
58413;DHT22;44209;52.952;6.790;2024-03-17T11:28:01;11.20;99.90
58413;DHT22;44209;52.952;6.790;2024-03-17T11:30:48;11.20;99.90
58413;DHT22;44209;52.952;6.790;2024-03-17T11:39:08;11.30;99.90
58413;DHT22;44209;52.952;6.790;2024-03-17T11:41:48;11.30;99.90
58413;DHT22;44209;52.952;6.790;2024-03-17T11:49:38;11.40;99.90
58413;DHT22;44209;52.952;6.790;2024-03-17T11:52:16;11.50;99.90
58413;DHT22;44209;52.952;6.790;2024-03-17T11:54:46;11.50;99.90
58413;DHT22;44209;52.952;6.790;2024-03-17T11:57:21;11.50;99.90
58413;DHT22;44209;52.952;6.790;2024-03-17T11:59:50;11.50;99.90
58413;DHT22;44209;52.952;6.790;2024-03-17T12:04:48;11.50;99.90
58413;DHT22;44209;52.952;6.790;2024-03-17T12:07:18;11.50;99.90
58413;DHT22;44209;52.952;6.790;2024-03-17T12:09:47;11.50;99.90
58413;DHT22;44209;52.952;6.790;2024-03-17T12:12:18;11.50;99.90
58413;DHT22;44209;52.952;6.790;2024-03-17T12:14:45;11.50;99.90
58413;DHT22;44209;52.952;6.790;2024-03-17T12:17:12;11.50;99.90
58413;DHT22;44209;52.952;6.790;2024-03-17T12:19:40;11.50;99.90
58413;DHT22;44209;52.952;6.790;2024-03-17T12:22:06;11.50;99.90
58413;DHT22;44209;52.952;6.790;2024-03-17T12:24:34;11.50;99.90
58413;DHT22;44209;52.952;6.790;2024-03-17T12:27:03;11.40;99.90
58413;DHT22;44209;52.952;6.790;2024-03-17T12:32:02;11.40;99.90
58413;DHT22;44209;52.952;6.790;2024-03-17T12:34:30;11.50;99.90
58413;DHT22;44209;52.952;6.790;2024-03-17T12:36:57;11.40;99.90
58413;DHT22;44209;52.952;6.790;2024-03-17T12:39:25;11.50;99.90
58413;DHT22;44209;52.952;6.790;2024-03-17T12:44:37;11.60;99.90
58413;DHT22;44209;52.952;6.790;2024-03-17T12:47:08;11.70;99.90
58413;DHT22;44209;52.952;6.790;2024-03-17T12:49:34;11.70;99.90
58413;DHT22;44209;52.952;6.790;2024-03-17T12:52:01;11.80;99.90
58413;DHT22;44209;52.952;6.790;2024-03-17T12:54:28;11.80;99.90
58413;DHT22;44209;52.952;6.790;2024-03-17T12:57:08;11.80;99.90
58413;DHT22;44209;52.952;6.790;2024-03-17T12:59:52;11.80;99.90
58413;DHT22;44209;52.952;6.790;2024-03-17T13:02:46;11.90;99.90
58413;DHT22;44209;52.952;6.790;2024-03-17T13:05:19;11.90;99.90
58413;DHT22;44209;52.952;6.790;2024-03-17T13:07:46;11.90;99.90
58413;DHT22;44209;52.952;6.790;2024-03-17T13:12:43;12.00;99.90
58413;DHT22;44209;52.952;6.790;2024-03-17T13:15:17;11.90;99.90
58413;DHT22;44209;52.952;6.790;2024-03-17T13:17:46;12.00;99.90
58413;DHT22;44209;52.952;6.790;2024-03-17T13:20:16;12.00;99.90
58413;DHT22;44209;52.952;6.790;2024-03-17T13:22:43;12.00;99.90
58413;DHT22;44209;52.952;6.790;2024-03-17T13:27:39;12.00;99.90
58413;DHT22;44209;52.952;6.790;2024-03-17T13:30:05;12.00;99.90
58413;DHT22;44209;52.952;6.790;2024-03-17T13:32:32;12.00;99.90
58413;DHT22;44209;52.952;6.790;2024-03-17T13:34:58;12.00;99.90
58413;DHT22;44209;52.952;6.790;2024-03-17T13:37:23;12.00;99.90
58413;DHT22;44209;52.952;6.790;2024-03-17T13:39:49;12.00;99.90
58413;DHT22;44209;52.952;6.790;2024-03-17T13:42:15;12.10;99.90
58413;DHT22;44209;52.952;6.790;2024-03-17T13:44:41;12.10;99.90
58413;DHT22;44209;52.952;6.790;2024-03-17T13:47:07;12.10;99.90
58413;DHT22;44209;52.952;6.790;2024-03-17T13:49:33;12.10;99.90
58413;DHT22;44209;52.952;6.790;2024-03-17T13:51:59;12.10;99.90
58413;DHT22;44209;52.952;6.790;2024-03-17T13:54:25;12.10;99.90
58413;DHT22;44209;52.952;6.790;2024-03-17T13:56:51;12.10;99.90
58413;DHT22;44209;52.952;6.790;2024-03-17T13:59:16;12.10;99.90
58413;DHT22;44209;52.952;6.790;2024-03-17T14:01:43;12.10;99.90
58413;DHT22;44209;52.952;6.790;2024-03-17T14:04:16;12.10;99.90
58413;DHT22;44209;52.952;6.790;2024-03-17T14:06:46;12.10;99.90
58413;DHT22;44209;52.952;6.790;2024-03-17T14:09:14;12.10;99.90
58413;DHT22;44209;52.952;6.790;2024-03-17T14:11:40;12.10;99.90
58413;DHT22;44209;52.952;6.790;2024-03-17T14:14:05;12.10;99.90
58413;DHT22;44209;52.952;6.790;2024-03-17T14:16:31;12.00;99.90
58413;DHT22;44209;52.952;6.790;2024-03-17T14:18:58;12.00;99.90
58413;DHT22;44209;52.952;6.790;2024-03-17T14:21:25;12.00;99.90
58413;DHT22;44209;52.952;6.790;2024-03-17T14:23:51;12.00;99.90
58413;DHT22;44209;52.952;6.790;2024-03-17T14:26:18;12.00;99.90
58413;DHT22;44209;52.952;6.790;2024-03-17T14:28:43;12.00;99.90
58413;DHT22;44209;52.952;6.790;2024-03-17T14:31:09;11.90;99.90
58413;DHT22;44209;52.952;6.790;2024-03-17T14:33:35;11.90;99.90
58413;DHT22;44209;52.952;6.790;2024-03-17T14:36:01;11.90;99.90
58413;DHT22;44209;52.952;6.790;2024-03-17T14:38:26;11.90;99.90
58413;DHT22;44209;52.952;6.790;2024-03-17T14:40:52;11.90;99.90
58413;DHT22;44209;52.952;6.790;2024-03-17T14:43:19;11.80;99.90
58413;DHT22;44209;52.952;6.790;2024-03-17T14:45:45;11.80;99.90
58413;DHT22;44209;52.952;6.790;2024-03-17T14:48:11;11.80;99.90
58413;DHT22;44209;52.952;6.790;2024-03-17T14:50:39;11.80;99.90
58413;DHT22;44209;52.952;6.790;2024-03-17T14:53:05;11.80;99.90
58413;DHT22;44209;52.952;6.790;2024-03-17T14:55:31;11.80;99.90
58413;DHT22;44209;52.952;6.790;2024-03-17T14:57:57;11.70;99.90
58413;DHT22;44209;52.952;6.790;2024-03-17T15:00:23;11.70;99.90
58413;DHT22;44209;52.952;6.790;2024-03-17T15:02:51;11.70;99.90
58413;DHT22;44209;52.952;6.790;2024-03-17T15:05:20;11.70;99.90
58413;DHT22;44209;52.952;6.790;2024-03-17T15:07:48;11.70;99.90
58413;DHT22;44209;52.952;6.790;2024-03-17T15:10:16;11.60;99.90
58413;DHT22;44209;52.952;6.790;2024-03-17T15:12:50;11.60;99.90
58413;DHT22;44209;52.952;6.790;2024-03-17T15:15:16;11.60;99.90
58413;DHT22;44209;52.952;6.790;2024-03-17T15:17:42;11.60;99.90
58413;DHT22;44209;52.952;6.790;2024-03-17T15:20:10;11.60;99.90
58413;DHT22;44209;52.952;6.790;2024-03-17T15:22:46;11.60;99.90
58413;DHT22;44209;52.952;6.790;2024-03-17T15:25:13;11.60;99.90
58413;DHT22;44209;52.952;6.790;2024-03-17T15:27:45;11.60;99.90
58413;DHT22;44209;52.952;6.790;2024-03-17T15:30:12;11.60;99.90
58413;DHT22;44209;52.952;6.790;2024-03-17T15:32:43;11.60;99.90
58413;DHT22;44209;52.952;6.790;2024-03-17T15:35:10;11.50;99.90
58413;DHT22;44209;52.952;6.790;2024-03-17T15:37:37;11.50;99.90
58413;DHT22;44209;52.952;6.790;2024-03-17T15:40:03;11.50;99.90
58413;DHT22;44209;52.952;6.790;2024-03-17T15:42:30;11.50;99.90
58413;DHT22;44209;52.952;6.790;2024-03-17T15:44:55;11.50;99.90
58413;DHT22;44209;52.952;6.790;2024-03-17T15:47:21;11.50;99.90
58413;DHT22;44209;52.952;6.790;2024-03-17T15:49:47;11.50;99.90
58413;DHT22;44209;52.952;6.790;2024-03-17T15:52:12;11.50;99.90
58413;DHT22;44209;52.952;6.790;2024-03-17T15:54:38;11.50;99.90
58413;DHT22;44209;52.952;6.790;2024-03-17T15:57:04;11.40;99.90
58413;DHT22;44209;52.952;6.790;2024-03-17T15:59:30;11.50;99.90
58413;DHT22;44209;52.952;6.790;2024-03-17T16:01:56;11.40;99.90
58413;DHT22;44209;52.952;6.790;2024-03-17T16:04:22;11.50;99.90
58413;DHT22;44209;52.952;6.790;2024-03-17T16:06:51;11.50;99.90
58413;DHT22;44209;52.952;6.790;2024-03-17T16:09:17;11.40;99.90
58413;DHT22;44209;52.952;6.790;2024-03-17T16:11:45;11.40;99.90
58413;DHT22;44209;52.952;6.790;2024-03-17T16:14:12;11.40;99.90
58413;DHT22;44209;52.952;6.790;2024-03-17T16:16:40;11.40;99.90
58413;DHT22;44209;52.952;6.790;2024-03-17T16:19:06;11.30;99.90
58413;DHT22;44209;52.952;6.790;2024-03-17T16:21:33;11.30;99.90